Time;durP1;ratioP1;P1;durP2;ratioP2;P2;SDS_P1;SDS_P2;PMS_P1;PMS_P2;Temp;Humidity;BMP_temperature;BMP_pressure;BME280_temperature;BME280_humidity;BME280_pressure;Samples;Min_cycle;Max_cycle;Signal;HPM_P1;HPM_P2
2021/11/03 00:02:05;;;;;;;56.77;28.67;;;;;;;3.12;92.68;96943.67;1754525;81;20984;-81
2021/11/03 00:04:34;;;;;;;57.58;29.18;;;;;;;3.13;93.92;96948.05;1738389;82;21537;-81
2021/11/03 00:07:01;;;;;;;54.80;26.77;;;;;;;3.15;93.93;96945.37;1734724;83;21001;-81
2021/11/03 00:09:28;;;;;;;64.20;29.77;;;;;;;3.18;93.92;96941.41;1734578;82;21047;-81
2021/11/03 00:11:54;;;;;;;58.08;28.50;;;;;;;3.17;97.64;96948.85;1748492;81;21374;-81
2021/11/03 00:14:21;;;;;;;56.10;29.23;;;;;;;3.21;94.13;96947.03;1759550;81;21044;-81
2021/11/03 00:16:47;;;;;;;56.92;29.32;;;;;;;3.21;93.82;96958.82;1759857;81;21000;-81
2021/11/03 00:19:14;;;;;;;70.03;32.03;;;;;;;3.21;93.19;96966.24;1758343;81;21433;-81
2021/11/03 00:21:41;;;;;;;61.73;29.63;;;;;;;3.26;93.28;96971.39;1751133;81;21012;-81
2021/11/03 00:24:08;;;;;;;57.58;28.95;;;;;;;3.22;94.74;96988.03;1751401;81;20976;-80
2021/11/03 00:26:34;;;;;;;58.08;29.87;;;;;;;3.21;93.75;96984.57;1741106;82;20993;-80
2021/11/03 00:29:00;;;;;;;60.43;28.02;;;;;;;3.25;93.74;96990.19;1702673;84;20992;-80
2021/11/03 00:31:27;;;;;;;50.43;26.02;;;;;;;3.27;93.51;96991.01;1730678;82;21003;-80
2021/11/03 00:33:53;;;;;;;49.48;26.15;;;;;;;3.27;93.27;96997.98;1736807;82;21482;-80
2021/11/03 00:36:20;;;;;;;51.85;25.85;;;;;;;3.27;95.09;97001.48;1748850;82;21009;-80
2021/11/03 00:38:47;;;;;;;49.50;25.25;;;;;;;3.26;94.17;97004.13;1748812;82;21005;-82
2021/11/03 00:41:13;;;;;;;43.85;24.12;;;;;;;3.29;93.75;97003.63;1748722;82;21080;-82
2021/11/03 00:43:40;;;;;;;46.33;24.85;;;;;;;3.28;93.60;97001.90;1748791;82;20953;-82
2021/11/03 00:46:07;;;;;;;43.95;24.20;;;;;;;3.18;95.05;97000.33;1747691;82;21423;-82
2021/11/03 00:48:33;;;;;;;45.23;25.20;;;;;;;3.21;94.21;96998.98;1742641;82;21048;-82
2021/11/03 00:51:00;;;;;;;41.48;23.67;;;;;;;3.23;94.07;97002.42;1715929;82;20981;-82
2021/11/03 00:53:27;;;;;;;49.13;25.62;;;;;;;3.20;94.66;97014.70;1742994;82;20975;-82
2021/11/03 00:55:54;;;;;;;45.35;23.77;;;;;;;3.20;93.88;97018.63;1731693;83;21500;-82
2021/11/03 00:58:20;;;;;;;46.10;24.15;;;;;;;3.19;93.74;97026.08;1738343;82;20929;-82
2021/11/03 01:00:47;;;;;;;47.15;25.62;;;;;;;3.16;94.55;97035.69;1748668;82;21028;-82
2021/11/03 01:03:15;;;;;;;49.53;25.25;;;;;;;3.15;94.14;97040.94;1748943;82;20989;-82
2021/11/03 01:05:42;;;;;;;47.95;24.95;;;;;;;3.12;93.77;97033.16;1748717;82;20970;-82
2021/11/03 01:08:12;;;;;;;52.13;25.90;;;;;;;3.05;94.74;97042.84;1748567;82;21423;-81
2021/11/03 01:10:43;;;;;;;50.17;26.55;;;;;;;3.00;93.76;97040.28;1748401;82;21060;-80
2021/11/03 01:13:10;;;;;;;49.98;24.72;;;;;;;2.96;94.27;97046.48;1740166;82;20961;-81
2021/11/03 01:15:37;;;;;;;48.52;25.10;;;;;;;2.92;93.27;97036.94;1740325;82;21037;-81
2021/11/03 01:18:04;;;;;;;50.65;24.98;;;;;;;2.87;93.35;97049.22;1712534;84;21058;-80
2021/11/03 01:20:32;;;;;;;48.95;25.43;;;;;;;2.79;93.07;97049.33;1717762;83;21064;-81
2021/11/03 01:22:59;;;;;;;51.63;25.52;;;;;;;2.76;93.03;97061.14;1703608;84;21035;-81
2021/11/03 01:25:27;;;;;;;50.20;25.85;;;;;;;2.71;92.63;97049.44;1746881;82;21012;-81
2021/11/03 01:27:54;;;;;;;51.90;24.63;;;;;;;2.63;92.51;97065.20;1733322;81;21449;-81
2021/11/03 01:30:23;;;;;;;44.60;24.23;;;;;;;2.56;92.31;97064.00;1734613;82;21073;-81
2021/11/03 01:32:54;;;;;;;50.67;24.52;;;;;;;2.52;92.70;97068.88;1724164;82;20997;-80
2021/11/03 01:35:24;;;;;;;48.00;23.27;;;;;;;2.46;92.43;97073.27;1753586;82;21036;-80
2021/11/03 01:37:51;;;;;;;50.83;25.80;;;;;;;2.39;92.76;97075.55;1743005;82;21033;-80
2021/11/03 01:40:23;;;;;;;52.67;25.45;;;;;;;2.37;92.53;97080.78;1713311;83;21187;-80
2021/11/03 01:42:50;;;;;;;49.90;24.80;;;;;;;2.31;92.71;97077.37;1720925;83;21004;-80
2021/11/03 01:45:21;;;;;;;59.53;28.23;;;;;;;2.27;92.33;97088.74;1708391;84;20996;-80
2021/11/03 01:47:57;;;;;;;52.30;25.68;;;;;;;2.24;92.50;97085.72;1697831;84;21044;-79
2021/11/03 01:50:50;;;;;;;52.73;25.25;;;;;;;2.19;92.33;97086.21;1696842;84;21030;-80
2021/11/03 01:53:25;;;;;;;59.90;29.27;;;;;;;2.14;92.51;97094.55;1736587;82;21012;-81
2021/11/03 01:56:03;;;;;;;62.00;30.20;;;;;;;2.12;92.27;97107.66;1754624;81;21454;-81
2021/11/03 01:58:48;;;;;;;59.95;28.83;;;;;;;2.11;92.10;97112.01;1749923;81;21012;-81
2021/11/03 02:01:15;;;;;;;58.33;26.90;;;;;;;2.11;92.19;97108.52;1750999;81;21024;-82
2021/11/03 02:03:43;;;;;;;50.30;25.37;;;;;;;2.10;92.32;97116.81;1744193;82;21044;-82
2021/11/03 02:06:17;;;;;;;53.23;25.37;;;;;;;2.14;92.76;97111.53;1710233;83;20993;-81
2021/11/03 02:08:47;;;;;;;47.50;25.45;;;;;;;2.19;92.74;97120.20;1680111;85;20996;-81
2021/11/03 02:11:17;;;;;;;45.65;23.25;;;;;;;2.22;93.25;97133.25;1679918;85;21504;-80
2021/11/03 02:13:45;;;;;;;42.48;22.48;;;;;;;2.24;93.33;97136.27;1680013;85;21012;-80
2021/11/03 02:16:16;;;;;;;41.92;21.40;;;;;;;2.29;94.14;97138.86;1685767;81;21051;-79
2021/11/03 02:18:43;;;;;;;42.08;21.85;;;;;;;2.31;93.09;97135.77;1697524;84;21034;-81
2021/11/03 02:21:17;;;;;;;42.20;22.35;;;;;;;2.29;93.07;97146.70;1698908;84;20999;-80
2021/11/03 02:24:12;;;;;;;39.42;22.42;;;;;;;2.32;93.12;97152.34;1695544;84;20940;-81
2021/11/03 02:26:44;;;;;;;;;;;;;;;2.32;92.92;97153.19;1706472;81;21053;-82
2021/11/03 02:29:14;;;;;;;44.35;20.70;;;;;;;2.30;93.32;97150.16;1700192;80;20094;-81
2021/11/03 02:31:46;;;;;;;37.95;20.15;;;;;;;2.26;93.11;97162.84;1675087;83;21289;-82
2021/11/03 02:34:24;;;;;;;40.20;21.05;;;;;;;2.24;93.30;97163.73;1675187;83;21081;-82
2021/11/03 02:36:59;;;;;;;42.85;21.65;;;;;;;2.22;93.00;97165.50;1675374;82;21105;-82
2021/11/03 02:39:42;;;;;;;44.63;22.85;;;;;;;2.16;93.04;97173.37;1674098;83;21034;-82
2021/11/03 02:42:09;;;;;;;44.20;21.87;;;;;;;2.10;92.92;97170.41;1675110;83;21069;-81
2021/11/03 02:44:38;;;;;;;37.28;19.10;;;;;;;2.05;92.78;97173.50;1674415;84;21072;-81
2021/11/03 02:47:06;;;;;;;33.05;17.05;;;;;;;2.03;92.89;97183.08;1673800;86;21051;-81
2021/11/03 02:49:37;;;;;;;34.10;17.65;;;;;;;2.01;92.99;97185.28;1679082;84;20998;-81
2021/11/03 02:52:17;;;;;;;37.63;17.87;;;;;;;1.97;92.97;97182.72;1701876;84;21086;-81
2021/11/03 02:54:44;;;;;;;32.30;16.87;;;;;;;1.96;92.79;97190.56;1749557;81;21005;-81
2021/11/03 02:57:11;;;;;;;34.78;16.67;;;;;;;1.90;93.58;97196.69;1750279;82;21021;-82
2021/11/03 02:59:38;;;;;;;33.60;17.37;;;;;;;1.88;92.90;97201.50;1750476;82;20993;-81
2021/11/03 03:02:06;;;;;;;38.85;16.85;;;;;;;1.86;92.60;97200.66;1750463;82;20993;-82
2021/11/03 03:04:40;;;;;;;28.70;16.77;;;;;;;1.82;92.39;97204.59;1750287;82;20981;-82
2021/11/03 03:07:10;;;;;;;31.90;16.85;;;;;;;1.79;92.66;97205.06;1749093;82;21013;-82
2021/11/03 03:09:37;;;;;;;32.50;18.40;;;;;;;1.81;92.65;97213.31;1749073;82;20996;-83
2021/11/03 03:12:10;;;;;;;37.00;18.75;;;;;;;1.80;93.13;97227.27;1748616;82;21064;-83
2021/11/03 03:14:41;;;;;;;41.98;18.75;;;;;;;1.82;92.92;97221.58;1748546;82;21454;-83
2021/11/03 03:17:11;;;;;;;49.05;19.23;;;;;;;1.86;93.38;97225.48;1739499;82;20989;-82
2021/11/03 03:19:39;;;;;;;41.00;19.17;;;;;;;1.88;93.95;97230.24;1678426;84;20993;-82
2021/11/03 03:22:06;;;;;;;36.50;19.15;;;;;;;1.87;93.70;97231.12;1713089;83;21080;-82
2021/11/03 03:24:33;;;;;;;33.85;18.70;;;;;;;1.89;94.02;97239.81;1720458;83;21027;-82
2021/11/03 03:27:00;;;;;;;34.48;17.37;;;;;;;1.88;93.69;97242.00;1721032;83;21012;-82
2021/11/03 03:29:27;;;;;;;30.77;17.20;;;;;;;1.82;95.37;97236.38;1721153;83;21462;-82
2021/11/03 03:31:54;;;;;;;39.83;18.65;;;;;;;1.81;94.82;97243.78;1704958;82;20998;-82
2021/11/03 03:34:25;;;;;;;33.98;18.15;;;;;;;1.82;94.96;97247.70;1673385;85;21044;-82
2021/11/03 03:36:54;;;;;;;33.58;17.92;;;;;;;1.85;94.89;97258.57;1713266;84;21061;-81
2021/11/03 03:39:24;;;;;;;34.43;18.05;;;;;;;1.93;94.45;97254.17;1713456;84;21501;-82
2021/11/03 03:41:57;;;;;;;35.28;18.87;;;;;;;1.96;93.94;97259.81;1676447;84;21114;-82
2021/11/03 03:44:24;;;;;;;35.25;18.10;;;;;;;2.04;94.37;97261.06;1709317;84;21068;-82
2021/11/03 03:46:53;;;;;;;33.18;18.32;;;;;;;2.09;94.12;97262.77;1708554;84;21409;-82
2021/11/03 03:49:22;;;;;;;32.48;17.05;;;;;;;2.14;94.00;97263.16;1708370;84;21520;-82
2021/11/03 03:51:49;;;;;;;32.05;16.93;;;;;;;2.15;94.15;97271.45;1708453;84;21062;-82
2021/11/03 03:54:16;;;;;;;37.93;18.27;;;;;;;2.15;93.86;97263.61;1706315;84;21491;-81
2021/11/03 03:56:43;;;;;;;41.15;19.10;;;;;;;2.17;93.86;97268.37;1696934;84;20978;-81
2021/11/03 03:59:10;;;;;;;38.73;19.82;;;;;;;2.18;93.86;97264.87;1697096;84;21030;-81
2021/11/03 04:01:38;;;;;;;40.48;19.55;;;;;;;2.18;93.94;97268.36;1703698;84;21027;-81
2021/11/03 04:04:08;;;;;;;35.33;17.85;;;;;;;2.18;93.65;97280.13;1708603;84;20998;-81
2021/11/03 04:06:35;;;;;;;40.00;18.87;;;;;;;2.18;93.40;97274.90;1679627;84;21020;-81
2021/11/03 04:09:05;;;;;;;35.10;17.95;;;;;;;2.16;93.02;97277.09;1752247;82;20989;-82
2021/11/03 04:11:31;;;;;;;46.70;19.20;;;;;;;2.16;93.16;97279.71;1749235;81;21012;-82
2021/11/03 04:13:59;;;;;;;42.85;19.67;;;;;;;2.14;93.05;97278.41;1753976;82;21044;-82
2021/11/03 04:16:27;;;;;;;43.87;17.85;;;;;;;2.15;92.95;97281.91;1753907;82;21064;-82
2021/11/03 04:18:53;;;;;;;34.10;18.32;;;;;;;2.14;92.96;97283.64;1754024;81;20980;-82
2021/11/03 04:21:20;;;;;;;35.83;17.00;;;;;;;2.15;93.22;97280.59;1727307;83;21629;-82
2021/11/03 04:23:47;;;;;;;30.68;17.87;;;;;;;2.16;93.01;97283.63;1749404;81;21083;-82
2021/11/03 04:26:25;;;;;;;41.98;19.00;;;;;;;2.14;92.89;97282.33;1759792;81;21441;-82
2021/11/03 04:28:53;;;;;;;37.58;17.82;;;;;;;2.13;92.74;97288.45;1759365;81;21064;-81
2021/11/03 04:31:21;;;;;;;40.28;17.70;;;;;;;2.11;92.88;97281.91;1756782;81;21405;-82
2021/11/03 04:33:51;;;;;;;42.90;17.30;;;;;;;2.07;93.07;97289.34;1756121;81;21457;-82
2021/11/03 04:36:21;;;;;;;38.28;16.95;;;;;;;2.05;93.12;97285.89;1744390;81;20989;-82
2021/11/03 04:38:51;;;;;;;29.00;16.45;;;;;;;2.05;93.45;97287.63;1709671;83;21603;-82
2021/11/03 04:41:18;;;;;;;35.75;17.05;;;;;;;2.05;92.90;97298.08;1719290;82;21458;-82
2021/11/03 04:43:46;;;;;;;35.30;17.48;;;;;;;2.06;93.14;97303.30;1714260;84;21078;-82
2021/11/03 04:46:16;;;;;;;33.92;16.95;;;;;;;2.08;93.03;97298.91;1714227;83;21033;-81
2021/11/03 04:48:45;;;;;;;26.80;16.05;;;;;;;2.10;93.13;97306.75;1714228;83;21458;-82
2021/11/03 04:51:12;;;;;;;27.85;16.10;;;;;;;2.10;92.93;97305.45;1714262;84;21484;-82
2021/11/03 04:53:40;;;;;;;29.80;16.73;;;;;;;2.11;92.89;97301.95;1716977;83;21025;-82
2021/11/03 04:56:09;;;;;;;24.92;14.95;;;;;;;2.13;93.37;97303.25;1703079;84;21004;-81
2021/11/03 04:58:37;;;;;;;29.72;16.37;;;;;;;2.17;93.51;97311.50;1701787;84;21005;-81
2021/11/03 05:01:04;;;;;;;25.75;14.55;;;;;;;2.18;93.90;97315.84;1682314;84;21044;-81
2021/11/03 05:03:31;;;;;;;32.28;18.05;;;;;;;2.16;93.47;97319.77;1685102;84;21040;-81
2021/11/03 05:06:00;;;;;;;27.52;16.50;;;;;;;2.17;93.66;97319.34;1678005;84;21072;-81
2021/11/03 05:08:28;;;;;;;29.72;16.95;;;;;;;2.17;93.75;97313.69;1708352;84;21048;-81
2021/11/03 05:10:54;;;;;;;36.63;15.20;;;;;;;2.16;93.50;97313.70;1708388;84;20985;-81
2021/11/03 05:13:22;;;;;;;30.80;15.08;;;;;;;2.11;93.50;97323.74;1708277;84;21508;-81
2021/11/03 05:15:51;;;;;;;35.90;15.58;;;;;;;1.96;93.48;97324.69;1677767;84;20994;-81
2021/11/03 05:18:19;;;;;;;41.20;17.07;;;;;;;1.86;93.77;97336.08;1708310;84;21458;-81
2021/11/03 05:20:46;;;;;;;45.85;16.95;;;;;;;1.82;93.94;97334.34;1703842;84;21175;-81
2021/11/03 05:23:13;;;;;;;47.65;16.62;;;;;;;1.78;93.93;97341.34;1707937;84;21052;-81
2021/11/03 05:25:40;;;;;;;34.30;17.12;;;;;;;1.70;94.44;97341.81;1707792;84;21481;-81
2021/11/03 05:28:07;;;;;;;47.38;17.57;;;;;;;1.61;95.11;97352.33;1707861;84;21088;-81
2021/11/03 05:30:33;;;;;;;45.55;18.12;;;;;;;1.60;94.10;97347.53;1707957;84;21032;-81
2021/11/03 05:33:00;;;;;;;45.92;17.82;;;;;;;1.60;93.61;97351.45;1707904;84;21033;-81
2021/11/03 05:35:27;;;;;;;34.80;16.55;;;;;;;1.61;94.19;97355.79;1707686;84;21054;-81
2021/11/03 05:37:53;;;;;;;38.45;16.67;;;;;;;1.65;93.74;97357.94;1707986;84;20998;-82
2021/11/03 05:40:24;;;;;;;33.78;16.07;;;;;;;1.70;93.60;97358.36;1707837;84;22271;-81
2021/11/03 05:42:51;;;;;;;30.75;16.27;;;;;;;1.75;94.00;97354.87;1707899;84;21454;-81
2021/11/03 05:45:19;;;;;;;27.22;15.35;;;;;;;1.80;93.89;97359.62;1699982;84;21002;-81
2021/11/03 05:47:46;;;;;;;33.67;16.12;;;;;;;1.84;93.92;97367.89;1718301;83;21060;-81
2021/11/03 05:50:21;;;;;;;34.25;15.63;;;;;;;1.86;93.76;97370.50;1706562;84;21037;-82
2021/11/03 05:52:48;;;;;;;37.67;18.02;;;;;;;1.87;93.14;97381.38;1682865;85;20968;-81
2021/11/03 05:55:14;;;;;;;34.10;16.87;;;;;;;1.90;93.90;97390.48;1690465;85;21066;-81
2021/11/03 05:57:43;;;;;;;37.70;14.70;;;;;;;1.91;93.99;97397.02;1688930;83;20994;-81
2021/11/03 06:00:24;;;;;;;37.60;16.90;;;;;;;1.87;94.25;97404.44;1728720;82;21040;-81
2021/11/03 06:02:51;;;;;;;36.60;18.05;;;;;;;1.82;93.54;97400.55;1734032;82;21010;-81
2021/11/03 06:05:17;;;;;;;27.25;15.70;;;;;;;1.83;93.49;97409.27;1733842;83;21012;-82
2021/11/03 06:07:58;;;;;;;23.87;14.20;;;;;;;1.91;93.67;97413.16;1734825;82;21003;-82
2021/11/03 06:10:31;;;;;;;25.90;14.63;;;;;;;1.91;93.95;97421.84;1755592;81;21040;-80
2021/11/03 06:12:59;;;;;;;22.07;13.15;;;;;;;1.92;93.62;97421.42;1728256;82;21012;-80
2021/11/03 06:15:28;;;;;;;23.22;12.73;;;;;;;2.00;93.90;97431.41;1756484;82;21008;-80
2021/11/03 06:17:56;;;;;;;23.47;13.80;;;;;;;2.10;93.82;97434.84;1738188;82;20970;-80
2021/11/03 06:20:24;;;;;;;22.82;12.93;;;;;;;2.19;93.98;97438.72;1753728;82;21020;-81
2021/11/03 06:22:51;;;;;;;23.27;13.13;;;;;;;2.25;93.95;97449.59;1738230;81;21449;-81
2021/11/03 06:25:18;;;;;;;25.05;13.55;;;;;;;2.33;93.79;97455.63;1749303;81;20992;-81
2021/11/03 06:27:46;;;;;;;25.90;14.65;;;;;;;2.42;93.99;97463.02;1759772;81;20953;-81
2021/11/03 06:30:21;;;;;;;26.02;14.58;;;;;;;2.47;93.78;97477.81;1758602;81;21487;-81
2021/11/03 06:32:48;;;;;;;26.62;14.85;;;;;;;2.44;93.57;97473.02;1720832;83;20981;-80
2021/11/03 06:35:15;;;;;;;35.03;15.60;;;;;;;2.47;93.48;97473.01;1704119;84;21408;-81
2021/11/03 06:37:42;;;;;;;31.68;14.85;;;;;;;2.43;93.04;97473.47;1709924;84;21012;-79
2021/11/03 06:40:13;;;;;;;27.58;14.45;;;;;;;2.43;93.42;97485.24;1707568;84;21055;-80
2021/11/03 06:42:39;;;;;;;29.10;13.53;;;;;;;2.47;93.23;97497.43;1692039;85;20993;-79
2021/11/03 06:45:09;;;;;;;26.52;14.40;;;;;;;2.44;92.79;97500.05;1681489;85;21067;-80
2021/11/03 06:47:36;;;;;;;25.80;13.58;;;;;;;2.43;92.71;97494.39;1685814;83;21509;-81
2021/11/03 06:50:07;;;;;;;25.97;13.80;;;;;;;2.46;92.65;97496.13;1721095;83;20991;-80
2021/11/03 06:52:35;;;;;;;27.37;13.10;;;;;;;2.39;91.91;97512.28;1707809;84;21052;-82
2021/11/03 06:55:03;;;;;;;30.30;13.68;;;;;;;2.26;91.56;97515.39;1708264;84;21028;-80
2021/11/03 06:57:29;;;;;;;23.05;13.35;;;;;;;2.14;92.50;97512.81;1708271;84;21032;-80
2021/11/03 06:59:59;;;;;;;28.02;14.55;;;;;;;2.13;92.15;97517.19;1703727;84;21069;-80
2021/11/03 07:02:26;;;;;;;26.15;14.35;;;;;;;2.16;92.47;97512.38;1707805;84;21497;-80
2021/11/03 07:04:52;;;;;;;33.63;16.07;;;;;;;2.21;92.36;97515.39;1708360;84;21021;-79
2021/11/03 07:07:19;;;;;;;32.48;17.67;;;;;;;2.28;92.47;97513.63;1743697;82;20969;-80
2021/11/03 07:09:45;;;;;;;37.63;17.98;;;;;;;2.32;92.23;97518.43;1715286;83;21104;-82
2021/11/03 07:12:12;;;;;;;33.28;17.23;;;;;;;2.30;93.01;97518.43;1716707;83;21012;-83
2021/11/03 07:14:38;;;;;;;32.88;17.67;;;;;;;2.31;92.12;97515.36;1698342;84;21542;-83
2021/11/03 07:17:11;;;;;;;42.70;18.00;;;;;;;2.40;92.44;97519.24;1709346;84;20977;-83
2021/11/03 07:19:38;;;;;;;34.90;17.65;;;;;;;2.47;93.66;97522.28;1708135;84;21044;-88
2021/11/03 07:22:12;;;;;;;29.92;17.52;;;;;;;2.54;92.66;97518.31;1673246;84;21060;-88
2021/11/03 07:24:41;;;;;;;37.20;18.67;;;;;;;2.62;92.69;97523.93;1697463;84;20993;-82
2021/11/03 07:27:08;;;;;;;41.95;18.50;;;;;;;2.75;92.51;97525.19;1698597;84;21013;-86
2021/11/03 07:29:38;;;;;;;39.25;19.00;;;;;;;2.81;92.69;97529.49;1699563;84;21008;-84
2021/11/03 07:32:04;;;;;;;42.58;20.25;;;;;;;2.86;91.88;97529.05;1702783;84;21013;-82
2021/11/03 07:34:31;;;;;;;33.78;18.48;;;;;;;2.94;92.36;97529.00;1702385;84;21282;-83
2021/11/03 07:37:00;;;;;;;38.28;18.02;;;;;;;3.00;92.60;97529.80;1702728;84;21112;-88
2021/11/03 07:39:31;;;;;;;42.00;19.17;;;;;;;3.07;92.75;97533.25;1674891;84;20993;-87
2021/11/03 07:41:58;;;;;;;34.10;18.05;;;;;;;3.01;92.41;97530.69;1700549;84;20999;-87
2021/11/03 07:44:29;;;;;;;38.98;19.35;;;;;;;3.06;92.06;97524.98;1645825;84;21485;-88
2021/11/03 07:46:57;;;;;;;33.73;18.65;;;;;;;3.09;92.87;97524.97;1667739;85;21084;-87
2021/11/03 07:49:24;;;;;;;33.23;17.73;;;;;;;3.12;92.83;97526.23;1724056;83;20999;-88
2021/11/03 07:51:52;;;;;;;31.68;18.27;;;;;;;3.22;92.80;97531.41;1694985;83;21027;-87
2021/11/03 07:54:20;;;;;;;33.08;18.30;;;;;;;3.29;92.86;97524.80;1735187;82;20981;-87
2021/11/03 07:56:47;;;;;;;32.60;17.82;;;;;;;3.40;92.71;97510.73;1718801;82;20990;-87
2021/11/03 07:59:17;;;;;;;39.90;20.68;;;;;;;3.49;93.87;97517.21;1748474;82;21028;-87
2021/11/03 08:01:44;;;;;;;33.75;19.73;;;;;;;3.55;92.76;97519.80;1748717;82;21021;-87
2021/11/03 08:04:11;;;;;;;31.40;19.35;;;;;;;3.66;92.32;97522.76;1747170;82;21043;-88
2021/11/03 08:06:41;;;;;;;36.35;20.68;;;;;;;3.76;92.07;97526.14;1720081;82;21017;-88
2021/11/03 08:09:09;;;;;;;36.75;18.02;;;;;;;3.87;92.28;97522.11;1748380;82;21001;-87
2021/11/03 08:11:47;;;;;;;32.28;18.90;;;;;;;3.93;91.85;97524.23;1748679;82;21422;-87
2021/11/03 08:14:18;;;;;;;33.23;18.80;;;;;;;3.99;91.87;97528.55;1748752;82;21462;-88
2021/11/03 08:17:10;;;;;;;31.50;18.90;;;;;;;3.99;91.86;97516.75;1748678;82;20993;-88
2021/11/03 08:19:47;;;;;;;37.60;19.30;;;;;;;4.03;91.82;97514.50;1747308;82;21025;-88
2021/11/03 08:22:20;;;;;;;35.65;20.80;;;;;;;4.16;91.71;97521.78;1751675;82;21013;-88
2021/11/03 08:24:44;;;;;;;32.78;19.40;;;;;;;4.31;91.64;97523.80;1754125;81;21016;-88
2021/11/03 08:27:11;;;;;;;35.98;20.77;;;;;;;4.41;91.19;97512.77;1739773;82;20985;-88
2021/11/03 08:29:39;;;;;;;35.90;19.32;;;;;;;4.55;91.74;97519.13;1742314;82;21025;-88
2021/11/03 08:32:10;;;;;;;33.35;19.70;;;;;;;4.70;92.00;97524.17;1734701;83;21048;-88
2021/11/03 08:34:38;;;;;;;31.00;18.70;;;;;;;4.81;91.75;97524.50;1747398;82;21087;-87
2021/11/03 08:37:13;;;;;;;32.10;19.57;;;;;;;4.88;91.64;97532.27;1754167;82;21391;-88
2021/11/03 08:39:44;;;;;;;33.13;19.92;;;;;;;4.98;91.83;97542.18;1753463;82;20993;-88
2021/11/03 08:42:10;;;;;;;33.08;20.30;;;;;;;5.07;91.89;97535.91;1754424;82;20977;-87
2021/11/03 08:44:40;;;;;;;35.90;20.23;;;;;;;5.13;91.90;97538.91;1754565;82;21000;-87
2021/11/03 08:47:11;;;;;;;33.75;20.32;;;;;;;5.20;91.96;97531.37;1754515;82;21035;-88
2021/11/03 08:49:39;;;;;;;37.17;21.17;;;;;;;5.29;92.26;97540.39;1738871;82;21021;-87
2021/11/03 08:52:07;;;;;;;34.50;20.17;;;;;;;5.43;92.45;97540.63;1754392;82;21000;-87
2021/11/03 08:54:39;;;;;;;35.95;21.33;;;;;;;5.58;92.59;97537.33;1754520;82;21452;-88
2021/11/03 08:57:07;;;;;;;36.42;20.55;;;;;;;5.67;92.29;97536.73;1754436;82;21009;-87
2021/11/03 08:59:34;;;;;;;40.03;22.00;;;;;;;5.77;92.37;97534.80;1752547;82;21012;-88
2021/11/03 09:02:03;;;;;;;36.30;22.27;;;;;;;5.89;92.22;97539.41;1734320;83;21127;-88
2021/11/03 09:04:33;;;;;;;39.13;23.98;;;;;;;5.99;92.30;97541.01;1755162;81;20973;-88
2021/11/03 09:07:00;;;;;;;41.85;24.72;;;;;;;6.11;92.18;97546.52;1759615;81;21425;-88
2021/11/03 09:09:27;;;;;;;43.95;24.63;;;;;;;6.24;92.08;97531.36;1759752;81;21067;-88
2021/11/03 09:11:54;;;;;;;45.45;25.85;;;;;;;6.35;92.46;97540.34;1757158;81;21512;-88
2021/11/03 09:14:21;;;;;;;43.50;25.60;;;;;;;6.49;93.20;97536.56;1725394;82;20996;-88
2021/11/03 09:16:50;;;;;;;46.58;25.72;;;;;;;6.62;92.51;97538.49;1734581;83;21064;-87
2021/11/03 09:19:18;;;;;;;47.67;26.73;;;;;;;6.74;92.09;97530.34;1734495;82;21556;-87
2021/11/03 09:21:45;;;;;;;49.95;25.62;;;;;;;6.87;92.22;97526.98;1742672;81;21423;-88
2021/11/03 09:24:12;;;;;;;44.45;25.37;;;;;;;7.01;91.99;97526.66;1739042;82;20997;-88
2021/11/03 09:26:43;;;;;;;36.03;21.97;;;;;;;7.15;91.72;97521.53;1739376;82;20945;-87
2021/11/03 09:29:12;;;;;;;37.42;21.52;;;;;;;7.28;89.56;97522.98;1704567;84;20991;-88
2021/11/03 09:31:41;;;;;;;33.02;19.37;;;;;;;7.40;89.51;97518.72;1703496;84;20977;-88
2021/11/03 09:34:08;;;;;;;36.03;18.92;;;;;;;7.55;88.07;97514.44;1698340;84;21085;-88
2021/11/03 09:36:36;;;;;;;29.57;17.55;;;;;;;7.66;86.87;97513.70;1724094;83;20984;-87
2021/11/03 09:39:04;;;;;;;30.45;18.50;;;;;;;7.77;88.13;97509.48;1723947;83;21012;-88
2021/11/03 09:41:50;;;;;;;34.35;19.32;;;;;;;7.88;86.42;97494.66;1728629;82;20992;-87
2021/11/03 09:44:25;;;;;;;28.80;17.25;;;;;;;7.99;85.55;97489.98;1739061;82;21011;-88
2021/11/03 09:47:16;;;;;;;34.33;18.87;;;;;;;8.11;85.57;97490.10;1731152;81;21047;-88
2021/11/03 09:49:59;;;;;;;32.55;20.15;;;;;;;8.25;85.84;97500.27;1731801;83;21436;-88
2021/11/03 09:52:37;;;;;;;31.93;19.00;;;;;;;8.38;85.09;97499.93;1731632;83;21451;-88
2021/11/03 09:55:24;;;;;;;32.08;19.98;;;;;;;8.51;85.26;97487.23;1733831;82;21020;-88
2021/11/03 09:57:58;;;;;;;30.77;20.45;;;;;;;8.63;84.49;97486.88;1748080;82;21073;-87
2021/11/03 10:00:53;;;;;;;30.05;16.80;;;;;;;8.76;84.89;97490.02;1748247;82;21037;-88
2021/11/03 10:03:43;;;;;;;29.35;16.95;;;;;;;8.88;81.74;97482.64;1733232;82;20998;-88
2021/11/03 10:06:24;;;;;;;25.88;17.05;;;;;;;9.01;83.01;97485.77;1748820;82;21021;-88
2021/11/03 10:08:54;;;;;;;24.98;16.23;;;;;;;9.12;83.49;97484.95;1748702;82;21044;-88
2021/11/03 10:11:29;;;;;;;25.37;15.38;;;;;;;9.22;82.21;97482.42;1748780;82;21009;-88
2021/11/03 10:13:58;;;;;;;27.10;16.27;;;;;;;9.32;81.77;97486.09;1733242;82;21001;-88
2021/11/03 10:16:45;;;;;;;22.85;14.95;;;;;;;9.42;81.48;97479.58;1731625;83;21021;-87
2021/11/03 10:19:20;;;;;;;21.93;13.95;;;;;;;9.54;80.96;97480.11;1731984;83;21450;-87
2021/11/03 10:21:58;;;;;;;24.30;15.32;;;;;;;9.66;82.02;97474.38;1731707;82;21524;-87
2021/11/03 10:24:31;;;;;;;24.35;15.05;;;;;;;9.76;80.72;97478.91;1735612;82;20990;-88
2021/11/03 10:27:18;;;;;;;21.85;14.63;;;;;;;9.91;80.79;97480.14;1748742;82;20997;-88
2021/11/03 10:29:53;;;;;;;21.82;13.70;;;;;;;10.58;80.66;97476.91;1719075;83;21020;-88
2021/11/03 10:32:34;;;;;;;20.97;13.38;;;;;;;11.74;77.82;97468.73;1719258;83;21004;-88
2021/11/03 10:35:40;;;;;;;17.82;12.90;;;;;;;12.79;73.14;97466.35;1730273;82;21082;-88
2021/11/03 10:38:15;;;;;;;19.90;13.70;;;;;;;13.79;73.21;97453.55;1707650;82;21048;-88
2021/11/03 10:40:50;;;;;;;19.85;13.48;;;;;;;14.81;66.62;97444.62;1747460;82;21033;-88
2021/11/03 10:43:31;;;;;;;18.12;13.15;;;;;;;15.31;62.69;97451.17;1748156;82;21087;-88
2021/11/03 10:46:05;;;;;;;18.95;13.93;;;;;;;15.42;63.59;97453.23;1748295;82;21079;-88
2021/11/03 10:48:34;;;;;;;18.55;13.20;;;;;;;15.54;61.66;97463.18;1746381;82;21031;-88
2021/11/03 10:51:17;;;;;;;17.87;13.43;;;;;;;15.55;59.69;97456.91;1748474;82;21028;-88
2021/11/03 10:53:53;;;;;;;18.77;13.43;;;;;;;16.03;58.74;97457.23;1748828;82;21017;-88
2021/11/03 10:56:33;;;;;;;17.25;12.68;;;;;;;17.18;59.81;97456.45;1748740;82;21089;-88
2021/11/03 10:59:20;;;;;;;17.27;12.53;;;;;;;18.14;56.69;97438.48;1748925;82;21017;-89
2021/11/03 11:01:48;;;;;;;14.58;12.18;;;;;;;18.83;52.99;97437.21;1748039;82;21481;-89
2021/11/03 11:04:32;;;;;;;13.05;10.78;;;;;;;19.68;55.92;97431.95;1748328;82;21004;-89
2021/11/03 11:07:19;;;;;;;15.88;11.48;;;;;;;20.16;47.97;97417.55;1748874;82;21048;-88
2021/11/03 11:10:17;;;;;;;14.85;10.98;;;;;;;20.54;46.26;97411.44;1748818;82;21068;-88
2021/11/03 11:12:48;;;;;;;12.23;10.68;;;;;;;20.90;43.01;97417.58;1747502;82;21011;-88
2021/11/03 11:15:20;;;;;;;14.75;11.43;;;;;;;20.63;41.38;97414.74;1747299;82;20982;-87
2021/11/03 11:18:17;;;;;;;13.43;11.03;;;;;;;20.65;45.93;97411.45;1748927;82;21108;-87
2021/11/03 11:20:49;;;;;;;13.43;10.45;;;;;;;20.88;44.83;97402.52;1747168;81;20997;-87
2021/11/03 11:23:30;;;;;;;15.38;11.08;;;;;;;20.99;44.63;97407.01;1748678;82;21013;-87
2021/11/03 11:26:22;;;;;;;13.03;10.80;;;;;;;21.59;41.53;97397.98;1748757;82;21052;-88
2021/11/03 11:29:15;;;;;;;14.18;10.88;;;;;;;22.02;42.18;97389.42;1718833;82;21032;-87
2021/11/03 11:32:05;;;;;;;13.03;10.48;;;;;;;22.24;42.89;97392.97;1748725;82;21039;-87
2021/11/03 11:35:00;;;;;;;13.65;10.78;;;;;;;22.57;42.20;97386.59;1736549;82;20995;-88
2021/11/03 11:37:50;;;;;;;14.23;11.50;;;;;;;22.72;37.71;97390.64;1717086;82;21084;-88
2021/11/03 11:40:39;;;;;;;13.68;11.22;;;;;;;22.58;39.82;97394.56;1748666;82;21013;-88
2021/11/03 11:43:33;;;;;;;13.80;11.45;;;;;;;22.73;37.18;97389.65;1748924;82;20993;-88